Emek S — 9HTA9 — position and weather

sailwx.info

Track history (hours):
 
Tides and Currents Weather Stations Pressure Air Temp Water Temp Dewpoint Dewpoint Depression Visibility Wind Speed Wind Dir Waves Ship Positions

Emek S

Last reported at 2018-Feb-17 20:00 UTC. Time now 2018-Feb-17 20:19 UTC.
Position N 51°25' E 002°37'.

Length 112 m; draft 6.4 m.

Type: Ship (hazmat cat B). MMSI: 249475000.

Date/timePositionNaut miles runAvg speedWind from/ knotsBaromVisibWave heightAir tempDewpointWater temp
2018-Feb-17 20:00N 51°25' E 002°37'0 0.0
2018-Feb-17 19:27N 51°25' E 002°37'0 0.0
2018-Feb-17 19:00N 51°25' E 002°37'0 0.0
2018-Feb-17 18:24N 51°25' E 002°37'0 0.1
2018-Feb-17 17:47N 51°25' E 002°37'0 0.1
2018-Feb-17 17:29N 51°25' E 002°37'0 0.0
2018-Feb-17 16:59N 51°25' E 002°37'0 0.0
2018-Feb-17 16:29N 51°25' E 002°37'1 1.7
2018-Feb-17 16:00N 51°25' E 002°36'5 9.7
2018-Feb-17 15:29N 51°22' E 002°29'5 9.8
2018-Feb-17 15:00N 51°20' E 002°22'510.3
2018-Feb-17 14:30N 51°18' E 002°15'510.6
2018-Feb-17 14:00N 51°15' E 002°08'510.9
2018-Feb-17 13:30N 51°12' E 002°00'611.2
2018-Feb-17 13:00N 51°09' E 001°53'611.2
2018-Feb-17 12:30N 51°06' E 001°46'611.9
2018-Feb-17 12:00N 51°02' E 001°39'912.3
2018-Feb-17 11:14N 50°55' E 001°28'313.0
2018-Feb-17 11:00N 50°52' E 001°27'712.7
2018-Feb-17 10:27N 50°45' E 001°24'9010.3
2018-Feb-17 01:39N 50°11' W 000°47'3 9.5
2018-Feb-17 01:22N 50°10' W 000°51'4 9.8
2018-Feb-17 01:00N 50°09' W 000°57'510.3
2018-Feb-17 00:30N 50°08' W 001°04'511.0
2018-Feb-17 00:00N 50°06' W 001°12'611.8
2018-Feb-16 23:31N 50°04' W 001°21'612.6
2018-Feb-16 23:00N 50°03' W 001°31'713.2
2018-Feb-16 22:30N 50°01' W 001°41'713.9
2018-Feb-16 22:00N 49°59' W 001°51'714.2
2018-Feb-16 21:30N 49°58' W 002°02'714.5
2018-Feb-16 21:00N 49°56' W 002°13'1314.2
2018-Feb-16 20:04N 49°52' W 002°33'213.5
2018-Feb-16 19:54N 49°52' W 002°36'9611.8
2018-Feb-16 11:50N 49°06' W 004°45'5 9.5
2018-Feb-16 11:17N 49°04' W 004°52'3 9.4
2018-Feb-16 10:58N 49°02' W 004°56'4 9.4
2018-Feb-16 10:30N 48°60' W 005°02'5 9.4
2018-Feb-16 10:00N 48°57' W 005°07'5 9.5
2018-Feb-16 09:30N 48°55' W 005°14'5 9.9
2018-Feb-16 09:00N 48°52' W 005°20'5 9.7
2018-Feb-16 08:30N 48°50' W 005°27'510.3
2018-Feb-16 07:59N 48°47' W 005°34'510.2
2018-Feb-16 07:30N 48°43' W 005°38'611.0
2018-Feb-16 07:00N 48°38' W 005°42'510.5
2018-Feb-16 06:30N 48°33' W 005°45'5 9.5
2018-Feb-16 06:00N 48°29' W 005°47'510.0
2018-Feb-16 05:29N 48°24' W 005°45'510.2
2018-Feb-16 05:00N 48°19' W 005°42'510.6
2018-Feb-16 04:30N 48°14' W 005°40'5 9.9
2018-Feb-16 04:00N 48°10' W 005°36'5 9.5
2018-Feb-16 03:30N 48°08' W 005°30'5 9.6
2018-Feb-16 03:00N 48°05' W 005°23'5 9.9
2018-Feb-16 02:30N 48°02' W 005°17'510.3
2018-Feb-16 02:00N 47°59' W 005°11'510.7
2018-Feb-16 01:30N 47°56' W 005°05'611.0
2018-Feb-16 01:00N 47°53' W 004°58'611.2
2018-Feb-16 00:30N 47°50' W 004°51'510.9
2018-Feb-16 00:00N 47°47' W 004°44'610.7
2018-Feb-15 23:30N 47°44' W 004°37'610.8
2018-Feb-15 22:58N 47°42' W 004°30'510.6
2018-Feb-15 22:30N 47°39' W 004°24'510.6
2018-Feb-15 22:00N 47°36' W 004°17'510.6
2018-Feb-15 21:30N 47°33' W 004°10'510.5
2018-Feb-15 21:00N 47°30' W 004°04'510.3
2018-Feb-15 20:30N 47°28' W 003°57'510.3
2018-Feb-15 20:00N 47°26' W 003°50'510.6
2018-Feb-15 19:30N 47°22' W 003°44'510.5
2018-Feb-15 19:00N 47°19' W 003°38'510.5
2018-Feb-15 18:30N 47°16' W 003°32'510.2
2018-Feb-15 18:00N 47°13' W 003°25'5 9.9
2018-Feb-15 17:30N 47°11' W 003°19'5 9.9
2018-Feb-15 17:00N 47°10' W 003°12'510.0
2018-Feb-15 16:30N 47°08' W 003°05'5 9.9
2018-Feb-15 16:00N 47°06' W 002°58'5 9.9
2018-Feb-15 15:30N 47°04' W 002°52'5 9.8
2018-Feb-15 15:00N 47°02' W 002°45'5 9.2
2018-Feb-15 14:30N 47°01' W 002°38'5 9.2
2018-Feb-15 14:00N 47°03' W 002°32'5 9.1
2018-Feb-15 13:30N 47°05' W 002°26'4 8.6
2018-Feb-15 13:00N 47°08' W 002°21'4 7.5
2018-Feb-15 12:30N 47°11' W 002°18'5 9.3
2018-Feb-15 12:00N 47°15' W 002°14'5 9.9
2018-Feb-15 11:30N 47°18' W 002°09'1 2.3
2018-Feb-15 10:58N 47°18' W 002°07'0 0.0
2018-Feb-15 10:28N 47°18' W 002°07'0 0.0
2018-Feb-15 09:57N 47°18' W 002°07'0 0.0
2018-Feb-15 09:30N 47°18' W 002°07'0 0.0
2018-Feb-15 08:54N 47°18' W 002°07'0 0.0
2018-Feb-15 08:30N 47°18' W 002°07'0 0.0
2018-Feb-15 08:00N 47°18' W 002°07'0 0.0
2018-Feb-15 07:29N 47°18' W 002°07'0 0.0
2018-Feb-15 06:56N 47°18' W 002°07'0 0.0
2018-Feb-15 04:55N 47°18' W 002°07'0 0.0
2018-Feb-15 04:28N 47°18' W 002°07'0 0.0
2018-Feb-15 03:58N 47°18' W 002°07'0 0.0
2018-Feb-15 03:16N 47°18' W 002°07'0 0.0
2018-Feb-15 02:48N 47°18' W 002°07'0 0.0
2018-Feb-15 02:30N 47°18' W 002°07'0 0.0
2018-Feb-15 01:42N 47°18' W 002°07'0 0.0
2018-Feb-15 01:21N 47°18' W 002°07'0 0.0
2018-Feb-15 01:00N 47°18' W 002°07'0 0.0
2018-Feb-15 00:29N 47°18' W 002°07'0 0.0
2018-Feb-14 23:29N 47°18' W 002°07'0 0.0
2018-Feb-14 22:59N 47°18' W 002°07'0 0.0
2018-Feb-14 22:19N 47°18' W 002°07'0 0.0
2018-Feb-14 21:43N 47°18' W 002°07'0 0.0
2018-Feb-14 21:19N 47°18' W 002°07'0 0.0
2018-Feb-14 20:55N 47°18' W 002°07'0 0.0
2018-Feb-14 20:28N 47°18' W 002°07'0 0.0
2018-Feb-14 20:01N 47°18' W 002°07'0 0.0
2018-Feb-14 19:30N 47°18' W 002°07'0 0.0
2018-Feb-14 18:48N 47°18' W 002°07'0 0.0
2018-Feb-14 18:30N 47°18' W 002°07'0 0.0
2018-Feb-14 18:00N 47°18' W 002°07'0 0.0
2018-Feb-14 17:29N 47°18' W 002°07'0 0.0
2018-Feb-14 16:59N 47°18' W 002°07'0 0.0
2018-Feb-14 16:29N 47°18' W 002°07'0 0.0
2018-Feb-14 15:59N 47°18' W 002°07'0 0.0
2018-Feb-14 15:29N 47°18' W 002°07'0 0.0
2018-Feb-14 14:58N 47°18' W 002°07'0 0.0
2018-Feb-14 14:13N 47°18' W 002°07'0 0.1
2018-Feb-14 14:00N 47°18' W 002°07'2 4.2
2018-Feb-14 13:30N 47°17' W 002°10'612.6
2018-Feb-14 13:00N 47°13' W 002°17'610.7
2018-Feb-14 12:29N 47°09' W 002°22'3 6.6
2018-Feb-14 12:00N 47°08' W 002°26'1 0.1
2018-Feb-14 05:57N 47°08' W 002°27'0 0.0
2018-Feb-14 05:26N 47°08' W 002°27'0 0.0
2018-Feb-14 04:20N 47°08' W 002°27'0 0.1
2018-Feb-14 03:56N 47°08' W 002°27'0 0.1
2018-Feb-14 03:29N 47°08' W 002°27'0 0.1
2018-Feb-14 02:58N 47°08' W 002°27'0 0.0
2018-Feb-14 02:28N 47°08' W 002°27'0 0.0
2018-Feb-14 01:58N 47°08' W 002°27'0 0.0
2018-Feb-14 01:28N 47°08' W 002°27'0 0.0
2018-Feb-14 00:58N 47°08' W 002°27'0 0.0
2018-Feb-14 00:30N 47°08' W 002°27'0 0.1
2018-Feb-14 00:00N 47°08' W 002°27'0 0.0
2018-Feb-13 23:30N 47°08' W 002°27'0 0.0
2018-Feb-13 23:00N 47°08' W 002°27'0 0.0
2018-Feb-13 22:29N 47°08' W 002°27'0 0.0
2018-Feb-13 21:56N 47°08' W 002°27'0 0.1
2018-Feb-13 21:29N 47°08' W 002°27'0 0.1
2018-Feb-13 20:59N 47°08' W 002°27'0 0.0
2018-Feb-13 20:29N 47°08' W 002°27'0 0.0
2018-Feb-13 19:52N 47°08' W 002°27'0 0.0
2018-Feb-13 19:28N 47°08' W 002°27'0 0.1
2018-Feb-13 18:58N 47°08' W 002°27'0 0.1
2018-Feb-13 18:25N 47°08' W 002°27'0 0.1
2018-Feb-13 18:01N 47°08' W 002°27'0 0.0
2018-Feb-13 17:30N 47°08' W 002°27'0 0.0
2018-Feb-13 17:00N 47°08' W 002°27'0 0.0
2018-Feb-13 16:27N 47°08' W 002°27'0 0.0
2018-Feb-13 15:57N 47°08' W 002°27'0 0.0
2018-Feb-13 15:29N 47°08' W 002°27'0 0.0
2018-Feb-13 14:53N 47°08' W 002°27'0 0.1
2018-Feb-13 14:29N 47°08' W 002°27'0 0.0
2018-Feb-13 13:59N 47°08' W 002°27'0 0.0
2018-Feb-13 13:17N 47°08' W 002°27'0 0.1
2018-Feb-13 12:49N 47°08' W 002°27'0 0.0
2018-Feb-13 12:28N 47°08' W 002°27'0 0.1
2018-Feb-13 11:58N 47°08' W 002°27'0 0.1
2018-Feb-13 11:28N 47°08' W 002°27'0 0.0
2018-Feb-13 11:00N 47°08' W 002°27'0 0.1
2018-Feb-13 10:30N 47°08' W 002°27'0 0.0
2018-Feb-13 10:00N 47°08' W 002°27'0 0.1
2018-Feb-13 09:27N 47°08' W 002°27'0 0.3
2018-Feb-13 08:55N 47°08' W 002°27'1 1.2
2018-Feb-13 08:21N 47°09' W 002°27'1 1.2
2018-Feb-13 07:49N 47°09' W 002°26'0 0.1
2018-Feb-13 07:26N 47°09' W 002°26'0 0.2
2018-Feb-13 06:13N 47°09' W 002°26'0 0.2
2018-Feb-13 05:54N 47°09' W 002°26'0 0.1
2018-Feb-13 05:15N 47°09' W 002°26'0 0.8
2018-Feb-13 04:57N 47°09' W 002°26'0 0.5
2018-Feb-13 04:30N 47°09' W 002°26'0 0.1
2018-Feb-13 03:54N 47°09' W 002°26'0 0.1
2018-Feb-13 03:30N 47°09' W 002°26'0 0.2
2018-Feb-13 03:00N 47°09' W 002°26'0 0.0
2018-Feb-13 02:30N 47°09' W 002°26'0 0.0
2018-Feb-13 01:59N 47°09' W 002°26'0 0.2
2018-Feb-13 01:23N 47°09' W 002°26'0 0.0
2018-Feb-13 00:59N 47°09' W 002°26'0 0.0
2018-Feb-13 00:26N 47°09' W 002°26'0 0.0
2018-Feb-12 23:58N 47°09' W 002°26'0 0.0
2018-Feb-12 23:28N 47°09' W 002°26'0 0.0
2018-Feb-12 22:58N 47°09' W 002°26'0 0.0
2018-Feb-12 22:25N 47°09' W 002°26'0 0.1
2018-Feb-12 22:01N 47°09' W 002°26'0 0.0
2018-Feb-12 21:30N 47°09' W 002°26'0 0.0
2018-Feb-12 21:00N 47°09' W 002°26'0 0.0
2018-Feb-12 20:27N 47°09' W 002°26'0 0.0
2018-Feb-12 19:57N 47°09' W 002°26'0 0.0
2018-Feb-12 19:29N 47°09' W 002°26'0 0.0
2018-Feb-12 18:59N 47°09' W 002°26'0 0.0
2018-Feb-12 18:29N 47°09' W 002°26'0 0.1
2018-Feb-12 17:59N 47°09' W 002°26'0 0.0
2018-Feb-12 17:29N 47°09' W 002°26'0 0.0
2018-Feb-12 16:58N 47°09' W 002°26'0 0.0
2018-Feb-12 16:25N 47°09' W 002°26'0 0.0
2018-Feb-12 15:52N 47°09' W 002°26'0 0.0
2018-Feb-12 15:16N 47°09' W 002°26'0 0.0
2018-Feb-12 14:58N 47°09' W 002°26'0 0.0
2018-Feb-12 14:30N 47°09' W 002°26'0 0.0
2018-Feb-12 13:03N 47°09' W 002°26'0 0.1
2018-Feb-12 13:00N 47°09' W 002°26'0 0.0
2018-Feb-12 12:26N 47°09' W 002°26'0 0.0
2018-Feb-12 11:56N 47°09' W 002°26'0 0.0
2018-Feb-12 11:26N 47°09' W 002°26'0 0.0
2018-Feb-12 10:56N 47°09' W 002°26'0 0.0
2018-Feb-12 10:23N 47°09' W 002°26'0 0.0
2018-Feb-12 09:49N 47°09' W 002°26'0 0.1
2018-Feb-12 09:28N 47°09' W 002°26'0 0.0
2018-Feb-12 08:55N 47°09' W 002°26'0 0.1
2018-Feb-12 08:25N 47°09' W 002°26'0 0.2
2018-Feb-12 08:01N 47°09' W 002°27'0 0.1
2018-Feb-12 07:30N 47°09' W 002°27'0 0.1
2018-Feb-12 07:00N 47°09' W 002°27'0 0.0
2018-Feb-12 06:30N 47°09' W 002°27'0 0.0
2018-Feb-12 05:57N 47°09' W 002°27'0 0.1
2018-Feb-12 05:29N 47°09' W 002°27'0 0.1
2018-Feb-12 04:59N 47°09' W 002°27'0 0.0
2018-Feb-12 04:30N 47°09' W 002°27'0 0.0
2018-Feb-12 04:00N 47°09' W 002°26'0 0.0
2018-Feb-12 03:30N 47°09' W 002°26'0 0.1
2018-Feb-12 03:00N 47°09' W 002°26'0 0.0
2018-Feb-12 02:30N 47°09' W 002°26'0 0.0
2018-Feb-12 01:59N 47°09' W 002°26'0 0.0
2018-Feb-12 01:29N 47°09' W 002°26'0 0.0
2018-Feb-12 00:59N 47°09' W 002°26'0 0.0
2018-Feb-12 00:26N 47°09' W 002°26'0 0.0
2018-Feb-11 23:56N 47°09' W 002°26'0 0.0
2018-Feb-11 23:28N 47°09' W 002°26'0 0.0
2018-Feb-11 22:58N 47°09' W 002°26'0 0.8
2018-Feb-11 22:30N 47°08' W 002°26'4 7.4
2018-Feb-11 22:00N 47°05' W 002°27'5 9.3
2018-Feb-11 21:30N 47°02' W 002°32'53 6.4
2018-Feb-11 13:14N 47°12' W 003°49'1 6.3
2018-Feb-11 13:00N 47°11' W 003°47'4 7.1
2018-Feb-11 12:30N 47°08' W 003°43'3 6.7
2018-Feb-11 11:59N 47°06' W 003°40'4 7.2
2018-Feb-11 11:27N 47°03' W 003°37'4 7.5
2018-Feb-11 10:58N 46°60' W 003°33'21 1.1
2018-Feb-10 15:36N 47°13' W 003°58'1 7.4
2018-Feb-10 15:30N 47°12' W 003°58'4 7.6
2018-Feb-10 14:58N 47°08' W 003°55'  
Track history (hours):
 
Tides and Currents Weather Stations Pressure Air Temp Water Temp Dewpoint Dewpoint Depression Visibility Wind Speed Wind Dir Waves Ship Positions

Emek S

Last reported at 2018-Feb-17 20:00 UTC. Time now 2018-Feb-17 20:19 UTC.
Position N 51°25' E 002°37'.

Length 112 m; draft 6.4 m.

Type: Ship (hazmat cat B). MMSI: 249475000.

Date/timePositionNaut miles runAvg speedWind from/ knotsBaromVisibWave heightAir tempDewpointWater temp
2018-Feb-17 20:00N 51°25' E 002°37'0 0.0
2018-Feb-17 19:27N 51°25' E 002°37'0 0.0
2018-Feb-17 19:00N 51°25' E 002°37'0 0.0
2018-Feb-17 18:24N 51°25' E 002°37'0 0.1
2018-Feb-17 17:47N 51°25' E 002°37'0 0.1
2018-Feb-17 17:29N 51°25' E 002°37'0 0.0
2018-Feb-17 16:59N 51°25' E 002°37'0 0.0
2018-Feb-17 16:29N 51°25' E 002°37'1 1.7
2018-Feb-17 16:00N 51°25' E 002°36'5 9.7
2018-Feb-17 15:29N 51°22' E 002°29'5 9.8
2018-Feb-17 15:00N 51°20' E 002°22'510.3
2018-Feb-17 14:30N 51°18' E 002°15'510.6
2018-Feb-17 14:00N 51°15' E 002°08'510.9
2018-Feb-17 13:30N 51°12' E 002°00'611.2
2018-Feb-17 13:00N 51°09' E 001°53'611.2
2018-Feb-17 12:30N 51°06' E 001°46'611.9
2018-Feb-17 12:00N 51°02' E 001°39'912.3
2018-Feb-17 11:14N 50°55' E 001°28'313.0
2018-Feb-17 11:00N 50°52' E 001°27'712.7
2018-Feb-17 10:27N 50°45' E 001°24'9010.3
2018-Feb-17 01:39N 50°11' W 000°47'3 9.5
2018-Feb-17 01:22N 50°10' W 000°51'4 9.8
2018-Feb-17 01:00N 50°09' W 000°57'510.3
2018-Feb-17 00:30N 50°08' W 001°04'511.0
2018-Feb-17 00:00N 50°06' W 001°12'611.8
2018-Feb-16 23:31N 50°04' W 001°21'612.6
2018-Feb-16 23:00N 50°03' W 001°31'713.2
2018-Feb-16 22:30N 50°01' W 001°41'713.9
2018-Feb-16 22:00N 49°59' W 001°51'714.2
2018-Feb-16 21:30N 49°58' W 002°02'714.5
2018-Feb-16 21:00N 49°56' W 002°13'1314.2
2018-Feb-16 20:04N 49°52' W 002°33'213.5
2018-Feb-16 19:54N 49°52' W 002°36'9611.8
2018-Feb-16 11:50N 49°06' W 004°45'5 9.5
2018-Feb-16 11:17N 49°04' W 004°52'3 9.4
2018-Feb-16 10:58N 49°02' W 004°56'4 9.4
2018-Feb-16 10:30N 48°60' W 005°02'5 9.4
2018-Feb-16 10:00N 48°57' W 005°07'5 9.5
2018-Feb-16 09:30N 48°55' W 005°14'5 9.9
2018-Feb-16 09:00N 48°52' W 005°20'5 9.7
2018-Feb-16 08:30N 48°50' W 005°27'510.3
2018-Feb-16 07:59N 48°47' W 005°34'510.2
2018-Feb-16 07:30N 48°43' W 005°38'611.0
2018-Feb-16 07:00N 48°38' W 005°42'510.5
2018-Feb-16 06:30N 48°33' W 005°45'5 9.5
2018-Feb-16 06:00N 48°29' W 005°47'510.0
2018-Feb-16 05:29N 48°24' W 005°45'510.2
2018-Feb-16 05:00N 48°19' W 005°42'510.6
2018-Feb-16 04:30N 48°14' W 005°40'5 9.9
2018-Feb-16 04:00N 48°10' W 005°36'5 9.5
2018-Feb-16 03:30N 48°08' W 005°30'5 9.6
2018-Feb-16 03:00N 48°05' W 005°23'5 9.9
2018-Feb-16 02:30N 48°02' W 005°17'510.3
2018-Feb-16 02:00N 47°59' W 005°11'510.7
2018-Feb-16 01:30N 47°56' W 005°05'611.0
2018-Feb-16 01:00N 47°53' W 004°58'611.2
2018-Feb-16 00:30N 47°50' W 004°51'510.9
2018-Feb-16 00:00N 47°47' W 004°44'610.7
2018-Feb-15 23:30N 47°44' W 004°37'610.8
2018-Feb-15 22:58N 47°42' W 004°30'510.6
2018-Feb-15 22:30N 47°39' W 004°24'510.6
2018-Feb-15 22:00N 47°36' W 004°17'510.6
2018-Feb-15 21:30N 47°33' W 004°10'510.5
2018-Feb-15 21:00N 47°30' W 004°04'510.3
2018-Feb-15 20:30N 47°28' W 003°57'510.3
2018-Feb-15 20:00N 47°26' W 003°50'510.6
2018-Feb-15 19:30N 47°22' W 003°44'510.5
2018-Feb-15 19:00N 47°19' W 003°38'510.5
2018-Feb-15 18:30N 47°16' W 003°32'510.2
2018-Feb-15 18:00N 47°13' W 003°25'5 9.9
2018-Feb-15 17:30N 47°11' W 003°19'5 9.9
2018-Feb-15 17:00N 47°10' W 003°12'510.0
2018-Feb-15 16:30N 47°08' W 003°05'5 9.9
2018-Feb-15 16:00N 47°06' W 002°58'5 9.9
2018-Feb-15 15:30N 47°04' W 002°52'5 9.8
2018-Feb-15 15:00N 47°02' W 002°45'5 9.2
2018-Feb-15 14:30N 47°01' W 002°38'5 9.2
2018-Feb-15 14:00N 47°03' W 002°32'5 9.1
2018-Feb-15 13:30N 47°05' W 002°26'4 8.6
2018-Feb-15 13:00N 47°08' W 002°21'4 7.5
2018-Feb-15 12:30N 47°11' W 002°18'5 9.3
2018-Feb-15 12:00N 47°15' W 002°14'5 9.9
2018-Feb-15 11:30N 47°18' W 002°09'1 2.3
2018-Feb-15 10:58N 47°18' W 002°07'0 0.0
2018-Feb-15 10:28N 47°18' W 002°07'0 0.0
2018-Feb-15 09:57N 47°18' W 002°07'0 0.0
2018-Feb-15 09:30N 47°18' W 002°07'0 0.0
2018-Feb-15 08:54N 47°18' W 002°07'0 0.0
2018-Feb-15 08:30N 47°18' W 002°07'0 0.0
2018-Feb-15 08:00N 47°18' W 002°07'0 0.0
2018-Feb-15 07:29N 47°18' W 002°07'0 0.0
2018-Feb-15 06:56N 47°18' W 002°07'0 0.0
2018-Feb-15 04:55N 47°18' W 002°07'0 0.0
2018-Feb-15 04:28N 47°18' W 002°07'0 0.0
2018-Feb-15 03:58N 47°18' W 002°07'0 0.0
2018-Feb-15 03:16N 47°18' W 002°07'0 0.0
2018-Feb-15 02:48N 47°18' W 002°07'0 0.0
2018-Feb-15 02:30N 47°18' W 002°07'0 0.0
2018-Feb-15 01:42N 47°18' W 002°07'0 0.0
2018-Feb-15 01:21N 47°18' W 002°07'0 0.0
2018-Feb-15 01:00N 47°18' W 002°07'0 0.0
2018-Feb-15 00:29N 47°18' W 002°07'0 0.0
2018-Feb-14 23:29N 47°18' W 002°07'0 0.0
2018-Feb-14 22:59N 47°18' W 002°07'0 0.0
2018-Feb-14 22:19N 47°18' W 002°07'0 0.0
2018-Feb-14 21:43N 47°18' W 002°07'0 0.0
2018-Feb-14 21:19N 47°18' W 002°07'0 0.0
2018-Feb-14 20:55N 47°18' W 002°07'0 0.0
2018-Feb-14 20:28N 47°18' W 002°07'0 0.0
2018-Feb-14 20:01N 47°18' W 002°07'0 0.0
2018-Feb-14 19:30N 47°18' W 002°07'0 0.0
2018-Feb-14 18:48N 47°18' W 002°07'0 0.0
2018-Feb-14 18:30N 47°18' W 002°07'0 0.0
2018-Feb-14 18:00N 47°18' W 002°07'0 0.0
2018-Feb-14 17:29N 47°18' W 002°07'0 0.0
2018-Feb-14 16:59N 47°18' W 002°07'0 0.0
2018-Feb-14 16:29N 47°18' W 002°07'0 0.0
2018-Feb-14 15:59N 47°18' W 002°07'0 0.0
2018-Feb-14 15:29N 47°18' W 002°07'0 0.0
2018-Feb-14 14:58N 47°18' W 002°07'0 0.0
2018-Feb-14 14:13N 47°18' W 002°07'0 0.1
2018-Feb-14 14:00N 47°18' W 002°07'2 4.2
2018-Feb-14 13:30N 47°17' W 002°10'612.6
2018-Feb-14 13:00N 47°13' W 002°17'610.7
2018-Feb-14 12:29N 47°09' W 002°22'3 6.6
2018-Feb-14 12:00N 47°08' W 002°26'1 0.1
2018-Feb-14 05:57N 47°08' W 002°27'0 0.0
2018-Feb-14 05:26N 47°08' W 002°27'0 0.0
2018-Feb-14 04:20N 47°08' W 002°27'0 0.1
2018-Feb-14 03:56N 47°08' W 002°27'0 0.1
2018-Feb-14 03:29N 47°08' W 002°27'0 0.1
2018-Feb-14 02:58N 47°08' W 002°27'0 0.0
2018-Feb-14 02:28N 47°08' W 002°27'0 0.0
2018-Feb-14 01:58N 47°08' W 002°27'0 0.0
2018-Feb-14 01:28N 47°08' W 002°27'0 0.0
2018-Feb-14 00:58N 47°08' W 002°27'0 0.0
2018-Feb-14 00:30N 47°08' W 002°27'0 0.1
2018-Feb-14 00:00N 47°08' W 002°27'0 0.0
2018-Feb-13 23:30N 47°08' W 002°27'0 0.0
2018-Feb-13 23:00N 47°08' W 002°27'0 0.0
2018-Feb-13 22:29N 47°08' W 002°27'0 0.0
2018-Feb-13 21:56N 47°08' W 002°27'0 0.1
2018-Feb-13 21:29N 47°08' W 002°27'0 0.1
2018-Feb-13 20:59N 47°08' W 002°27'0 0.0
2018-Feb-13 20:29N 47°08' W 002°27'0 0.0
2018-Feb-13 19:52N 47°08' W 002°27'0 0.0
2018-Feb-13 19:28N 47°08' W 002°27'0 0.1
2018-Feb-13 18:58N 47°08' W 002°27'0 0.1
2018-Feb-13 18:25N 47°08' W 002°27'0 0.1
2018-Feb-13 18:01N 47°08' W 002°27'0 0.0
2018-Feb-13 17:30N 47°08' W 002°27'0 0.0
2018-Feb-13 17:00N 47°08' W 002°27'0 0.0
2018-Feb-13 16:27N 47°08' W 002°27'0 0.0
2018-Feb-13 15:57N 47°08' W 002°27'0 0.0
2018-Feb-13 15:29N 47°08' W 002°27'0 0.0
2018-Feb-13 14:53N 47°08' W 002°27'0 0.1
2018-Feb-13 14:29N 47°08' W 002°27'0 0.0
2018-Feb-13 13:59N 47°08' W 002°27'0 0.0
2018-Feb-13 13:17N 47°08' W 002°27'0 0.1
2018-Feb-13 12:49N 47°08' W 002°27'0 0.0
2018-Feb-13 12:28N 47°08' W 002°27'0 0.1
2018-Feb-13 11:58N 47°08' W 002°27'0 0.1
2018-Feb-13 11:28N 47°08' W 002°27'0 0.0
2018-Feb-13 11:00N 47°08' W 002°27'0 0.1
2018-Feb-13 10:30N 47°08' W 002°27'0 0.0
2018-Feb-13 10:00N 47°08' W 002°27'0 0.1
2018-Feb-13 09:27N 47°08' W 002°27'0 0.3
2018-Feb-13 08:55N 47°08' W 002°27'1 1.2
2018-Feb-13 08:21N 47°09' W 002°27'1 1.2
2018-Feb-13 07:49N 47°09' W 002°26'0 0.1
2018-Feb-13 07:26N 47°09' W 002°26'0 0.2
2018-Feb-13 06:13N 47°09' W 002°26'0 0.2
2018-Feb-13 05:54N 47°09' W 002°26'0 0.1
2018-Feb-13 05:15N 47°09' W 002°26'0 0.8
2018-Feb-13 04:57N 47°09' W 002°26'0 0.5
2018-Feb-13 04:30N 47°09' W 002°26'0 0.1
2018-Feb-13 03:54N 47°09' W 002°26'0 0.1
2018-Feb-13 03:30N 47°09' W 002°26'0 0.2
2018-Feb-13 03:00N 47°09' W 002°26'0 0.0
2018-Feb-13 02:30N 47°09' W 002°26'0 0.0
2018-Feb-13 01:59N 47°09' W 002°26'0 0.2
2018-Feb-13 01:23N 47°09' W 002°26'0 0.0
2018-Feb-13 00:59N 47°09' W 002°26'0 0.0
2018-Feb-13 00:26N 47°09' W 002°26'0 0.0
2018-Feb-12 23:58N 47°09' W 002°26'0 0.0
2018-Feb-12 23:28N 47°09' W 002°26'0 0.0
2018-Feb-12 22:58N 47°09' W 002°26'0 0.0
2018-Feb-12 22:25N 47°09' W 002°26'0 0.1
2018-Feb-12 22:01N 47°09' W 002°26'0 0.0
2018-Feb-12 21:30N 47°09' W 002°26'0 0.0
2018-Feb-12 21:00N 47°09' W 002°26'0 0.0
2018-Feb-12 20:27N 47°09' W 002°26'0 0.0
2018-Feb-12 19:57N 47°09' W 002°26'0 0.0
2018-Feb-12 19:29N 47°09' W 002°26'0 0.0
2018-Feb-12 18:59N 47°09' W 002°26'0 0.0
2018-Feb-12 18:29N 47°09' W 002°26'0 0.1
2018-Feb-12 17:59N 47°09' W 002°26'0 0.0
2018-Feb-12 17:29N 47°09' W 002°26'0 0.0
2018-Feb-12 16:58N 47°09' W 002°26'0 0.0
2018-Feb-12 16:25N 47°09' W 002°26'0 0.0
2018-Feb-12 15:52N 47°09' W 002°26'0 0.0
2018-Feb-12 15:16N 47°09' W 002°26'0 0.0
2018-Feb-12 14:58N 47°09' W 002°26'0 0.0
2018-Feb-12 14:30N 47°09' W 002°26'0 0.0
2018-Feb-12 13:03N 47°09' W 002°26'0 0.1
2018-Feb-12 13:00N 47°09' W 002°26'0 0.0
2018-Feb-12 12:26N 47°09' W 002°26'0 0.0
2018-Feb-12 11:56N 47°09' W 002°26'0 0.0
2018-Feb-12 11:26N 47°09' W 002°26'0 0.0
2018-Feb-12 10:56N 47°09' W 002°26'0 0.0
2018-Feb-12 10:23N 47°09' W 002°26'0 0.0
2018-Feb-12 09:49N 47°09' W 002°26'0 0.1
2018-Feb-12 09:28N 47°09' W 002°26'0 0.0
2018-Feb-12 08:55N 47°09' W 002°26'0 0.1
2018-Feb-12 08:25N 47°09' W 002°26'0 0.2
2018-Feb-12 08:01N 47°09' W 002°27'0 0.1
2018-Feb-12 07:30N 47°09' W 002°27'0 0.1
2018-Feb-12 07:00N 47°09' W 002°27'0 0.0
2018-Feb-12 06:30N 47°09' W 002°27'0 0.0
2018-Feb-12 05:57N 47°09' W 002°27'0 0.1
2018-Feb-12 05:29N 47°09' W 002°27'0 0.1
2018-Feb-12 04:59N 47°09' W 002°27'0 0.0
2018-Feb-12 04:30N 47°09' W 002°27'0 0.0
2018-Feb-12 04:00N 47°09' W 002°26'0 0.0
2018-Feb-12 03:30N 47°09' W 002°26'0 0.1
2018-Feb-12 03:00N 47°09' W 002°26'0 0.0
2018-Feb-12 02:30N 47°09' W 002°26'0 0.0
2018-Feb-12 01:59N 47°09' W 002°26'0 0.0
2018-Feb-12 01:29N 47°09' W 002°26'0 0.0
2018-Feb-12 00:59N 47°09' W 002°26'0 0.0
2018-Feb-12 00:26N 47°09' W 002°26'0 0.0
2018-Feb-11 23:56N 47°09' W 002°26'0 0.0
2018-Feb-11 23:28N 47°09' W 002°26'0 0.0
2018-Feb-11 22:58N 47°09' W 002°26'0 0.8
2018-Feb-11 22:30N 47°08' W 002°26'4 7.4
2018-Feb-11 22:00N 47°05' W 002°27'5 9.3
2018-Feb-11 21:30N 47°02' W 002°32'53 6.4
2018-Feb-11 13:14N 47°12' W 003°49'1 6.3
2018-Feb-11 13:00N 47°11' W 003°47'4 7.1
2018-Feb-11 12:30N 47°08' W 003°43'3 6.7
2018-Feb-11 11:59N 47°06' W 003°40'4 7.2
2018-Feb-11 11:27N 47°03' W 003°37'4 7.5
2018-Feb-11 10:58N 46°60' W 003°33'21 1.1
2018-Feb-10 15:36N 47°13' W 003°58'1 7.4
2018-Feb-10 15:30N 47°12' W 003°58'4 7.6
2018-Feb-10 14:58N 47°08' W 003°55'  

Dump ship's entire track history